createdAt,value
2022-10-13T00:00:33.674Z,14.19
2022-10-13T00:05:33.599Z,9.80
2022-10-13T00:10:33.538Z,13.10
2022-10-13T00:15:33.466Z,10.50
2022-10-13T00:20:33.406Z,13.39
2022-10-13T00:25:33.333Z,15.80
2022-10-13T00:30:33.276Z,10.60
2022-10-13T00:35:33.200Z,11.69
2022-10-13T00:40:33.140Z,12.69
2022-10-13T00:45:33.066Z,9.00
2022-10-13T00:50:33.007Z,10.30
2022-10-13T00:55:32.934Z,10.60
2022-10-13T01:00:32.950Z,11.00
2022-10-13T01:05:32.800Z,16.79
2022-10-13T01:10:32.739Z,11.10
2022-10-13T01:15:32.668Z,11.89
2022-10-13T01:20:32.606Z,9.69
2022-10-13T01:25:32.532Z,12.69
2022-10-13T01:30:32.475Z,13.10
2022-10-13T01:35:32.400Z,11.89
2022-10-13T01:40:32.339Z,12.30
2022-10-13T01:45:32.264Z,9.89
2022-10-13T01:50:32.207Z,9.30
2022-10-13T01:55:32.141Z,12.30
2022-10-13T02:00:32.132Z,11.60
2022-10-13T02:05:31.999Z,11.30
2022-10-13T02:10:31.939Z,13.80
2022-10-13T02:15:31.864Z,9.89
2022-10-13T02:20:31.806Z,13.19
2022-10-13T02:25:31.731Z,13.69
2022-10-13T02:30:31.671Z,11.10
2022-10-13T02:35:31.596Z,15.69
2022-10-13T02:40:31.540Z,14.89
2022-10-13T02:45:31.462Z,15.39
2022-10-13T02:50:31.405Z,15.69
2022-10-13T02:55:31.330Z,11.69
2022-10-13T03:00:31.310Z,13.10
2022-10-13T03:05:31.195Z,13.30
2022-10-13T03:10:31.137Z,12.89
2022-10-13T03:15:31.062Z,16.50
2022-10-13T03:20:31.009Z,18.10
2022-10-13T03:25:30.930Z,22.29
2022-10-13T03:30:30.864Z,13.80
2022-10-13T03:35:30.806Z,15.80
2022-10-13T03:40:30.728Z,15.50
2022-10-13T03:45:30.672Z,20.50
2022-10-13T03:50:30.598Z,13.39
2022-10-13T03:55:30.540Z,19.00
2022-10-13T04:00:30.464Z,15.89
2022-10-13T04:05:30.406Z,12.10
2022-10-13T04:10:30.330Z,18.60
2022-10-13T04:15:30.271Z,14.50
2022-10-13T04:20:30.226Z,16.20
2022-10-13T04:25:30.140Z,18.29
2022-10-13T04:30:30.064Z,14.60
2022-10-13T04:35:30.003Z,17.29
2022-10-13T04:40:29.932Z,11.89
2022-10-13T04:45:29.869Z,18.39
2022-10-13T04:50:29.796Z,18.10
2022-10-13T04:55:29.739Z,18.10
2022-10-13T05:00:29.738Z,21.39
2022-10-13T05:05:29.602Z,23.60
2022-10-13T05:10:33.936Z,16.60
2022-10-13T05:15:29.471Z,17.39
2022-10-13T05:20:29.397Z,16.39
2022-10-13T05:25:33.678Z,18.89
2022-10-13T05:30:29.262Z,17.60
2022-10-13T05:35:29.202Z,19.89
2022-10-13T05:40:29.131Z,17.89
2022-10-13T05:45:29.069Z,20.60
2022-10-13T05:50:28.997Z,18.20
2022-10-13T05:55:28.936Z,16.20
2022-10-13T06:00:28.863Z,15.69
2022-10-13T06:05:28.803Z,19.39
2022-10-13T06:10:28.728Z,16.70
2022-10-13T06:15:28.673Z,16.50
2022-10-13T06:20:28.599Z,16.39
2022-10-13T06:25:28.538Z,16.79
2022-10-13T06:30:28.468Z,15.30
2022-10-13T06:35:28.402Z,18.20
2022-10-13T06:40:28.334Z,22.10
2022-10-13T06:45:28.273Z,21.89
2022-10-13T06:50:28.201Z,21.50
2022-10-13T06:55:28.140Z,25.39
2022-10-13T07:00:28.099Z,22.89
2022-10-13T07:05:28.022Z,22.60
2022-10-13T07:10:27.944Z,28.10
2022-10-13T07:15:27.875Z,26.00
2022-10-13T07:20:27.802Z,23.70
2022-10-13T07:25:27.745Z,23.89
2022-10-13T07:30:27.666Z,29.20
2022-10-13T07:35:30.690Z,27.29
2022-10-13T07:40:27.532Z,29.29
2022-10-13T07:45:27.474Z,26.20
2022-10-13T07:50:27.404Z,26.10
2022-10-13T07:55:27.341Z,28.89
2022-10-13T08:00:27.267Z,29.60
2022-10-13T08:05:27.210Z,24.79
2022-10-13T08:10:27.134Z,24.39
2022-10-13T08:15:27.078Z,28.79
2022-10-13T08:20:36.187Z,23.29
2022-10-13T08:25:27.975Z,21.20
2022-10-13T08:30:26.974Z,21.79
2022-10-13T08:35:28.430Z,23.00
2022-10-13T08:40:26.737Z,19.70
2022-10-13T08:45:40.969Z,21.20
2022-10-13T08:50:27.626Z,23.29
2022-10-13T08:55:26.545Z,23.70
2022-10-13T09:00:26.462Z,20.89
2022-10-13T09:05:26.399Z,25.29
2022-10-13T09:10:26.327Z,17.29
2022-10-13T09:15:26.268Z,20.29
2022-10-13T09:20:26.193Z,20.79
2022-10-13T09:25:26.134Z,16.39
2022-10-13T09:30:26.060Z,20.29
2022-10-13T09:35:25.999Z,18.70
2022-10-13T09:40:25.928Z,16.60
2022-10-13T09:45:25.867Z,19.70
2022-10-13T09:50:25.793Z,16.00
2022-10-13T09:55:29.921Z,19.00
2022-10-13T10:00:25.661Z,16.00
2022-10-13T10:05:25.602Z,19.00
2022-10-13T10:10:25.536Z,16.39
2022-10-13T10:15:25.470Z,16.89
2022-10-13T10:20:25.395Z,14.80
2022-10-13T10:25:25.340Z,15.60
2022-10-13T10:30:25.263Z,14.39
2022-10-13T10:35:25.203Z,14.19
2022-10-13T10:40:25.132Z,17.39
2022-10-13T10:45:25.071Z,13.10
2022-10-13T10:50:24.994Z,12.00
2022-10-13T10:55:24.934Z,12.10
2022-10-13T11:00:25.016Z,13.00
2022-10-13T11:05:24.801Z,13.30
2022-10-13T11:10:24.727Z,16.50
2022-10-13T11:15:24.668Z,15.80
2022-10-13T11:20:24.598Z,10.89
2022-10-13T11:25:24.532Z,11.19
2022-10-13T11:30:24.611Z,11.39
2022-10-13T11:35:24.398Z,14.00
2022-10-13T11:40:24.327Z,10.39
2022-10-13T11:45:24.270Z,12.80
2022-10-13T11:50:24.189Z,12.69
2022-10-13T11:55:24.129Z,11.00
2022-10-13T12:00:24.056Z,12.00
2022-10-13T12:05:23.996Z,12.19
2022-10-13T12:10:23.921Z,11.00
2022-10-13T12:15:23.860Z,11.00
2022-10-13T12:20:23.786Z,11.00
2022-10-13T12:25:23.725Z,12.19
2022-10-13T12:30:23.656Z,10.80
2022-10-13T12:35:23.590Z,16.39
2022-10-13T12:40:23.537Z,8.60
2022-10-13T12:45:23.458Z,9.50
2022-10-13T12:50:23.384Z,9.60
2022-10-13T12:55:23.323Z,8.89
2022-10-13T13:00:23.246Z,10.60
2022-10-13T13:05:23.186Z,8.80
2022-10-13T13:10:23.113Z,8.50
2022-10-13T13:15:23.052Z,13.00
2022-10-13T13:20:22.980Z,12.00
2022-10-13T13:25:22.924Z,9.69
2022-10-13T13:30:22.844Z,17.89
2022-10-13T13:35:22.782Z,8.39
2022-10-13T13:40:22.706Z,8.60
2022-10-13T13:45:22.651Z,14.19
2022-10-13T13:50:22.575Z,16.89
2022-10-13T13:55:22.515Z,12.39
2022-10-13T14:00:22.441Z,10.19
2022-10-13T14:05:22.381Z,14.50
2022-10-13T14:10:22.309Z,10.80
2022-10-13T14:15:25.819Z,12.19
2022-10-13T14:20:22.174Z,15.19
2022-10-13T14:25:22.117Z,14.00
2022-10-13T14:30:22.041Z,10.19
2022-10-13T14:35:21.981Z,16.00
2022-10-13T14:40:22.059Z,10.19
2022-10-13T14:45:21.849Z,11.80
2022-10-13T14:50:21.776Z,11.30
2022-10-13T14:55:21.716Z,11.00
2022-10-13T15:00:21.660Z,8.30
2022-10-13T15:05:21.583Z,9.39
2022-10-13T15:10:21.506Z,11.69
2022-10-13T15:15:21.452Z,11.60
2022-10-13T15:20:21.377Z,9.50
2022-10-13T15:25:21.317Z,9.10
2022-10-13T15:30:21.242Z,8.10
2022-10-13T15:35:21.184Z,6.50
2022-10-13T15:40:21.110Z,8.10
2022-10-13T15:45:21.048Z,10.10
2022-10-13T15:50:20.977Z,10.30
2022-10-13T15:55:20.915Z,5.90
2022-10-13T16:00:20.842Z,7.09
2022-10-13T16:05:20.785Z,5.59
2022-10-13T16:10:20.707Z,4.00
2022-10-13T16:15:20.651Z,5.30
2022-10-13T16:20:20.575Z,3.50
2022-10-13T16:25:20.517Z,5.30
2022-10-13T16:30:20.445Z,8.80
2022-10-13T16:35:20.385Z,5.40
2022-10-13T16:40:20.313Z,8.50
2022-10-13T16:45:35.475Z,6.90
2022-10-13T16:50:21.208Z,4.40
2022-10-13T16:55:20.121Z,5.00
2022-10-13T17:00:20.158Z,8.30
2022-10-13T17:05:19.988Z,9.19
2022-10-13T17:10:19.915Z,6.19
2022-10-13T17:15:19.859Z,5.09
2022-10-13T17:20:19.780Z,4.69
2022-10-13T17:25:19.720Z,25.10
2022-10-13T17:30:19.647Z,7.40
2022-10-13T17:35:19.598Z,7.40
2022-10-13T17:40:19.747Z,7.30
2022-10-13T17:45:19.452Z,7.30
2022-10-13T17:50:19.380Z,10.10
2022-10-13T17:55:19.313Z,8.80
2022-10-13T18:00:19.248Z,8.10
2022-10-13T18:05:19.170Z,8.69
2022-10-13T18:10:19.109Z,6.40
2022-10-13T18:15:19.033Z,7.69
2022-10-13T18:20:18.974Z,7.90
2022-10-13T18:25:18.898Z,8.50
2022-10-13T18:30:22.348Z,9.89
2022-10-13T18:35:18.766Z,7.00
2022-10-13T18:40:18.711Z,9.30
2022-10-13T18:45:18.622Z,21.39
2022-10-13T18:50:18.565Z,13.50
2022-10-13T18:55:18.487Z,9.39
2022-10-13T19:00:18.424Z,12.89
2022-10-13T19:05:18.351Z,10.30
2022-10-13T19:10:18.289Z,13.50
2022-10-13T19:15:18.213Z,12.39
2022-10-13T19:20:18.152Z,16.20
2022-10-13T19:25:18.076Z,16.89
2022-10-13T19:30:18.017Z,12.30
2022-10-13T19:35:17.945Z,13.80
2022-10-13T19:40:17.887Z,16.39
2022-10-13T19:45:17.817Z,14.60
2022-10-13T19:50:17.756Z,22.10
2022-10-13T19:55:17.683Z,14.60
2022-10-13T20:00:17.627Z,21.89
2022-10-13T20:05:20.873Z,11.69
2022-10-13T20:10:17.495Z,13.00
2022-10-13T20:15:17.424Z,13.60
2022-10-13T20:20:22.134Z,14.69
2022-10-13T20:25:17.292Z,16.79
2022-10-13T20:30:17.240Z,12.89
2022-10-13T20:35:17.165Z,15.39
2022-10-13T20:40:17.105Z,12.69
2022-10-13T20:45:17.031Z,13.30
2022-10-13T20:50:16.980Z,13.00
2022-10-13T20:55:16.902Z,15.00
2022-10-13T21:00:16.871Z,11.80
2022-10-13T21:05:16.768Z,14.19
2022-10-13T21:10:16.713Z,15.30
2022-10-13T21:15:16.635Z,14.19
2022-10-13T21:20:16.577Z,12.19
2022-10-13T21:25:16.503Z,15.30
2022-10-13T21:30:16.444Z,15.00
2022-10-13T21:35:16.377Z,13.30
2022-10-13T21:40:16.312Z,15.00
2022-10-13T21:45:16.238Z,15.00
2022-10-13T21:50:16.177Z,16.50
2022-10-13T21:55:16.123Z,13.30
2022-10-13T22:00:16.046Z,13.69
2022-10-13T22:05:15.982Z,13.19
2022-10-13T22:10:15.912Z,14.00
2022-10-13T22:15:15.840Z,13.60
2022-10-13T22:20:15.778Z,23.20
2022-10-13T22:25:15.706Z,25.20
2022-10-13T22:30:15.645Z,14.80
2022-10-13T22:35:15.571Z,14.00
2022-10-13T22:40:15.511Z,16.79
2022-10-13T22:45:15.435Z,16.89
2022-10-13T22:50:15.373Z,15.80
2022-10-13T22:55:15.299Z,16.10
2022-10-13T23:00:15.241Z,14.89
2022-10-13T23:05:15.166Z,14.60
2022-10-13T23:10:15.106Z,16.60
2022-10-13T23:15:15.030Z,14.69
2022-10-13T23:20:14.970Z,15.69
2022-10-13T23:25:14.899Z,15.89
2022-10-13T23:30:14.838Z,14.50
2022-10-13T23:35:14.763Z,14.69
2022-10-13T23:40:14.702Z,18.20
2022-10-13T23:45:14.631Z,18.50
2022-10-13T23:50:14.573Z,16.70
2022-10-13T23:55:14.498Z,13.10
